• Join FlightAware (Why Join?)
  • Login
  • US Flag 
09:54AM EDT


 

Airport Tracker/Info


-or-


 

Live Flight TrackerFlight Track Log ✈ N173DS ✈ 04-Jan-2014 ✈ KTPA - KOPF

Flight Track Log - Related Links

Times and Time Zones

All times are in EST time to prevent confusion due to time zone crossing. See the N173DS flight status page for this flight to view local times or setup timezone preferences in your user account.

Time Position Orientation Groundspeed Altitude Reporting Facility
EST Latitude Longitude Course Direction KTS MPH feet Rate Location/Type
06:12PM 27.9833 -82.5333 360° North 160 184 900  Level Tampa TRACON
06:13PM 28.0500 -82.5333 360° North 205 236 3,800 2,340 Climbing Tampa TRACON
06:16PM 27.9489 -82.5772 201° Southwest 208 239 9,000 2,100 Climbing Miami Center
06:17PM 27.8678 -82.5753 179° South 254 292 11,100 2,520 Climbing Miami Center
06:18PM 27.7781 -82.5756 180° South 301 346 14,100 2,880 Climbing Miami Center
06:19PM 27.6856 -82.5406 161° South 339 390 16,900 1,440 Climbing Miami Center
06:20PM 27.5853 -82.4886 155° Southeast 360 414 17,000  Climbing Miami Center
06:21PM 27.4808 -82.4344 155° Southeast 387 445 17,000  Level Miami Center
06:22PM 27.3950 -82.3906 156° South 369 425 17,000  Level Miami Center
06:23PM 27.3047 -82.3489 158° South 354 407 17,000  Level Miami Center
06:24PM 27.2147 -82.3025 155° Southeast 354 407 17,000  Level Miami Center
06:25PM 27.1267 -82.2589 156° South 348 400 17,000  Level Miami Center
06:26PM 27.0422 -82.2244 160° South 343 395 17,000  Level Miami Center
06:27PM 26.9594 -82.2092 171° South 324 373 17,000  Level Miami Center
06:28PM 26.8839 -82.1661 153° Southeast 306 352 17,000  Level Miami Center
06:29PM 26.8261 -82.0889 130° Southeast 327 376 17,000  Level Miami Center
06:30PM 26.7639 -82.0142 133° Southeast 332 382 17,000  Level Miami Center
06:31PM 26.6958 -81.9344 134° Southeast 326 375 17,000  Level Miami Center
06:32PM 26.6358 -81.8597 132° Southeast 326 375 17,000  Level Miami Center
06:33PM 26.5717 -81.7850 134° Southeast 326 375 17,000  Level Miami Center
06:34PM 26.5094 -81.7058 131° Southeast 326 375 17,000  Level Miami Center
06:35PM 26.4433 -81.6267 133° Southeast 336 387 17,000  Level Miami Center
06:36PM 26.3708 -81.5403 133° Southeast 356 410 17,000  Level Miami Center
06:37PM 26.3025 -81.4589 133° Southeast 364 419 17,000  Level Miami Center
06:38PM 26.2342 -81.3753 132° Southeast 364 419 17,000  Level Miami Center
06:39PM 26.1675 -81.2964 133° Southeast 357 411 17,000 -600 Level Miami Center
06:40PM 26.1072 -81.2225 132° Southeast 339 390 15,900 -1,320 Descending Miami Center
06:40PM 26.0828 -81.1983 138° Southeast 315 362 15,200 -1,740 Descending Miami Center
06:41PM 26.0467 -81.1531 132° Southeast 319 367 14,200 -1,680 Descending Miami Center
06:41PM 26.0403 -81.1506 161° South 313 360 14,000 -1,620 Descending Miami Center
06:42PM 25.9961 -81.0911 130° Southeast 306 352 12,600 -1,620 Descending Miami Center
06:42PM 25.9797 -81.0792 147° Southeast 291 335 12,400 -1,500 Descending Miami Center
06:43PM 25.9375 -81.0244 131° Southeast 285 328 11,100 -1,620 Descending Miami Center
06:43PM 25.9294 -81.0150 133° Southeast 283 326 10,800 -1,920 Descending Miami Center
06:44PM 25.9294 -80.9364 90° East 260 299 9,200 -1,980 Descending Miami Center
06:44PM 25.9300 -80.9225 87° East 291 335 8,800 -2,340 Descending Miami Center
06:45PM 25.9403 -80.8514 81° East 260 299 6,900 -2,280 Descending Miami Center
06:45PM 25.9364 -80.8419 115° Southeast 282 325 6,700 -2,220 Descending Miami Center
06:46PM 25.9467 -80.7639 82° East 270 311 4,700 -2,280 Descending Miami Center
06:46PM 25.9450 -80.7569 105° East 276 318 4,400 -2,100 Descending Miami Center
06:47PM 25.9531 -80.6808 83° East 270 311 2,600 -1,980 Descending Miami Center
06:47PM 25.9472 -80.6669 115° Southeast 265 305 2,200 -1,020 Descending Miami Center
06:48PM 25.9403 -80.6089 98° East 257 296 1,600 -600 Descending Miami Center
06:48PM 25.9344 -80.5972 119° Southeast 210 242 1,600  Level Miami Center
06:49PM 25.9253 -80.5436 101° East 232 267 1,600  Level Miami Center
06:49PM 25.9175 -80.5228 113° Southeast 218 251 1,600  Level Miami Center
06:50PM 25.9122 -80.4786 98° East 219 252 1,600 60 Level Miami Center
06:50PM 25.9025 -80.4553 115° Southeast 220 253 1,700  Climbing Miami Center
06:51PM 25.9036 -80.4022 89° East 165 190 1,600 -240 Descending Miami Center
06:52PM 25.9069 -80.3539 86° East 118 136 1,200 -540 Descending Miami Center
06:53PM 25.9100 -80.3192 84° East 121 139 600 -660 Descending Miami Center
06:55PM 25.9074 -80.2782 90° East  Level Estimated
07:02PM 25.9074 -80.2782 90° East  Level Estimated